Komet — DBBF — position and weather

sailwx.info

Track history (hours):
 
Tides and Currents Weather Stations Pressure Air Temp Water Temp Dewpoint Dewpoint Depression Visibility Wind Speed Wind Dir Waves Ship Positions

Oceanographic research ship Komet (Germany)

Detailed information on ship capabilities available from University of Delaware's Ocean Information Center.

Last reported at 2017-Jun-22 10:45 UTC. Time now 2017-Jun-28 07:01 UTC.
Position N 55°00' E 008°26'.

Length 63 m; draft 3.6 m.

Type: Law enforcement. MMSI: 211282860.

Date/timePositionNaut miles runAvg speedWind from/ knotsBaromVisibWave heightAir tempDewpointWater temp
2017-Jun-22 10:45N 55°00' E 008°26'0 0.1
2017-Jun-22 10:30N 55°00' E 008°26'2 0.7
2017-Jun-22 07:17N 55°02' E 008°28'2 1.7
2017-Jun-22 05:53N 55°00' E 008°26'0 0.0
2017-Jun-22 04:59N 55°00' E 008°26'0 0.0
2017-Jun-22 04:29N 55°00' E 008°26'0 0.0
2017-Jun-22 03:47N 55°00' E 008°26'0 0.0
2017-Jun-22 03:29N 55°00' E 008°26'0 0.0
2017-Jun-22 02:59N 55°00' E 008°26'0 0.0
2017-Jun-21 22:59N 55°00' E 008°26'0 0.0
2017-Jun-21 22:05N 55°00' E 008°26'67 2.1
2017-Jun-20 14:08N 53°54' E 008°01'610.2
2017-Jun-20 13:30N 53°49' E 008°08'612.3
2017-Jun-20 13:00N 53°45' E 008°14'713.2
2017-Jun-20 12:30N 53°40' E 008°23'713.6
2017-Jun-20 12:01N 53°36' E 008°31'5 9.0
2017-Jun-20 11:30N 53°32' E 008°35'1 1.1
2017-Jun-20 11:00N 53°31' E 008°35'0 0.0
2017-Jun-20 10:30N 53°31' E 008°35'0 0.0
2017-Jun-20 10:00N 53°31' E 008°35'0 0.0
2017-Jun-20 09:30N 53°31' E 008°35'0 0.0
2017-Jun-20 09:00N 53°31' E 008°35'0 0.0
2017-Jun-20 08:31N 53°31' E 008°35'0 0.0
2017-Jun-20 08:00N 53°31' E 008°35'0 0.0
2017-Jun-20 07:30N 53°31' E 008°35'0 0.0
2017-Jun-20 07:00N 53°31' E 008°35'0 0.0
2017-Jun-20 06:30N 53°31' E 008°35'0 0.0
2017-Jun-20 05:59N 53°31' E 008°35'0 0.0
2017-Jun-20 05:30N 53°31' E 008°35'0 0.0
2017-Jun-20 05:01N 53°31' E 008°35'0 0.0
2017-Jun-20 04:30N 53°31' E 008°35'0 0.0
2017-Jun-20 03:59N 53°31' E 008°35'0 0.0
2017-Jun-20 03:29N 53°31' E 008°35'0 0.0
2017-Jun-20 02:57N 53°31' E 008°35'0 0.0
2017-Jun-20 02:31N 53°31' E 008°35'0 0.0
2017-Jun-20 02:00N 53°31' E 008°35'0 0.0
2017-Jun-20 01:27N 53°31' E 008°35'0 0.0
2017-Jun-20 00:59N 53°31' E 008°35'0 0.0
2017-Jun-20 00:29N 53°31' E 008°35'0 0.0
2017-Jun-19 23:59N 53°31' E 008°35'0 0.0
2017-Jun-19 23:29N 53°31' E 008°35'0 0.0
2017-Jun-19 22:58N 53°31' E 008°35'0 0.0
2017-Jun-19 22:28N 53°31' E 008°35'0 0.0
2017-Jun-19 21:58N 53°31' E 008°35'0 0.0
2017-Jun-19 21:28N 53°31' E 008°35'0 0.0
2017-Jun-19 20:55N 53°31' E 008°35'0 0.0
2017-Jun-19 20:28N 53°31' E 008°35'0 0.0
2017-Jun-19 19:58N 53°31' E 008°35'0 0.0
2017-Jun-19 19:30N 53°31' E 008°35'0 0.0
2017-Jun-19 19:00N 53°31' E 008°35'0 0.0
2017-Jun-19 18:30N 53°31' E 008°35'0 0.0
2017-Jun-19 18:00N 53°31' E 008°35'0 0.0
2017-Jun-19 17:30N 53°31' E 008°35'0 0.0
2017-Jun-19 17:00N 53°31' E 008°35'0 0.0
2017-Jun-19 16:30N 53°31' E 008°35'0 0.0
2017-Jun-19 16:00N 53°31' E 008°35'0 0.0
2017-Jun-19 15:27N 53°31' E 008°35'0 0.0
2017-Jun-19 15:00N 53°31' E 008°35'0 0.0
2017-Jun-19 14:00N 53°31' E 008°35'0 0.0
2017-Jun-19 13:28N 53°31' E 008°35'0 0.0
2017-Jun-19 12:49N 53°31' E 008°35'0 0.0
2017-Jun-19 12:28N 53°31' E 008°35'0 0.0
2017-Jun-19 12:00N 53°31' E 008°35'0 0.0
2017-Jun-19 11:29N 53°31' E 008°35'0 0.0
2017-Jun-19 11:00N 53°31' E 008°35'0 0.0
2017-Jun-19 10:30N 53°31' E 008°35'0 0.0
2017-Jun-19 10:00N 53°31' E 008°35'0 0.0
2017-Jun-19 09:30N 53°31' E 008°35'0 0.0
2017-Jun-19 09:00N 53°31' E 008°35'0 0.0
2017-Jun-19 08:30N 53°31' E 008°35'0 0.0
2017-Jun-19 07:58N 53°31' E 008°35'0 0.0
2017-Jun-19 07:28N 53°31' E 008°35'0 0.0
2017-Jun-19 07:00N 53°31' E 008°35'0 0.0
2017-Jun-19 06:27N 53°31' E 008°35'0 0.0
2017-Jun-19 06:00N 53°31' E 008°35'0 0.0
2017-Jun-19 05:29N 53°31' E 008°35'0 0.0
2017-Jun-19 04:56N 53°31' E 008°35'0 0.0
2017-Jun-19 04:29N 53°31' E 008°35'0 0.0
2017-Jun-19 03:59N 53°31' E 008°35'0 0.0
2017-Jun-19 03:29N 53°31' E 008°35'0 0.0
2017-Jun-19 02:59N 53°31' E 008°35'0 0.0
2017-Jun-19 02:26N 53°31' E 008°35'0 0.0
2017-Jun-19 02:00N 53°31' E 008°35'0 0.0
2017-Jun-19 01:28N 53°31' E 008°35'0 0.0
2017-Jun-19 00:55N 53°31' E 008°35'0 0.0
2017-Jun-19 00:28N 53°31' E 008°35'0 0.0
2017-Jun-18 23:58N 53°31' E 008°35'0 0.0
2017-Jun-18 23:28N 53°31' E 008°35'0 0.0
2017-Jun-18 23:00N 53°31' E 008°35'0 0.0
2017-Jun-18 22:30N 53°31' E 008°35'0 0.0
2017-Jun-18 22:00N 53°31' E 008°35'0 0.0
2017-Jun-18 21:30N 53°31' E 008°35'0 0.0
2017-Jun-18 20:57N 53°31' E 008°35'0 0.0
2017-Jun-18 20:30N 53°31' E 008°35'0 0.0
2017-Jun-18 19:58N 53°31' E 008°35'0 0.0
2017-Jun-18 19:28N 53°31' E 008°35'0 0.0
2017-Jun-18 18:58N 53°31' E 008°35'0 0.0
2017-Jun-18 18:28N 53°31' E 008°35'0 0.0
2017-Jun-18 18:00N 53°31' E 008°35'0 0.0
2017-Jun-18 17:30N 53°31' E 008°35'0 0.0
2017-Jun-18 16:59N 53°31' E 008°35'0 0.0
2017-Jun-18 16:30N 53°31' E 008°35'0 0.0
2017-Jun-18 16:00N 53°31' E 008°35'0 0.0
2017-Jun-18 15:30N 53°31' E 008°35'0 0.0
2017-Jun-18 15:00N 53°31' E 008°35'0 0.0
2017-Jun-18 14:00N 53°31' E 008°35'0 0.0
2017-Jun-18 13:30N 53°31' E 008°35'0 0.0
2017-Jun-18 13:00N 53°31' E 008°35'0 0.0
2017-Jun-18 12:30N 53°31' E 008°35'0 0.0
2017-Jun-18 12:01N 53°31' E 008°35'0 0.0
2017-Jun-18 11:30N 53°31' E 008°35'0 0.0
2017-Jun-18 11:00N 53°31' E 008°35'0 0.0
2017-Jun-18 10:30N 53°31' E 008°35'0 0.0
2017-Jun-18 10:00N 53°31' E 008°35'0 0.0
2017-Jun-18 09:30N 53°31' E 008°35'0 0.0
2017-Jun-18 09:00N 53°31' E 008°35'0 0.0
2017-Jun-18 08:30N 53°31' E 008°35'0 0.0
2017-Jun-18 08:00N 53°31' E 008°35'0 0.0
2017-Jun-18 07:28N 53°31' E 008°35'0 0.0
2017-Jun-18 06:59N 53°31' E 008°35'0 0.0
2017-Jun-18 06:30N 53°31' E 008°35'0 0.0
2017-Jun-18 06:00N 53°31' E 008°35'0 0.0
2017-Jun-18 05:30N 53°31' E 008°35'0 0.0
2017-Jun-18 04:59N 53°31' E 008°35'0 0.0
2017-Jun-18 04:26N 53°31' E 008°35'0 0.0
2017-Jun-18 03:58N 53°31' E 008°35'0 0.0
2017-Jun-18 03:30N 53°31' E 008°35'0 0.0
2017-Jun-18 02:59N 53°31' E 008°35'0 0.0
2017-Jun-18 02:29N 53°31' E 008°35'0 0.0
2017-Jun-18 01:59N 53°31' E 008°35'0 0.0
2017-Jun-18 01:29N 53°31' E 008°35'0 0.0
2017-Jun-18 00:56N 53°31' E 008°35'0 0.0
2017-Jun-18 00:29N 53°31' E 008°35'0 0.0
2017-Jun-18 00:00N 53°31' E 008°35'0 0.0
2017-Jun-17 23:30N 53°31' E 008°35'0 0.0
2017-Jun-17 23:00N 53°31' E 008°35'0 0.0
2017-Jun-17 22:28N 53°31' E 008°35'0 0.0
2017-Jun-17 22:00N 53°31' E 008°35'0 0.0
2017-Jun-17 21:29N 53°31' E 008°35'0 0.0
2017-Jun-17 20:58N 53°31' E 008°35'0 0.0
2017-Jun-17 20:30N 53°31' E 008°35'0 0.0
2017-Jun-17 20:00N 53°31' E 008°35'0 0.0
2017-Jun-17 19:29N 53°31' E 008°35'0 0.0
2017-Jun-17 19:00N 53°31' E 008°35'0 0.0
2017-Jun-17 18:30N 53°31' E 008°35'0 0.0
2017-Jun-17 18:00N 53°31' E 008°35'0 0.0
2017-Jun-17 17:29N 53°31' E 008°35'0 0.0
2017-Jun-17 17:00N 53°31' E 008°35'0 0.0
2017-Jun-17 16:30N 53°31' E 008°35'0 0.0
2017-Jun-17 16:00N 53°31' E 008°35'0 0.0
2017-Jun-17 15:30N 53°31' E 008°35'0 0.0
2017-Jun-17 15:01N 53°31' E 008°35'0 0.0
2017-Jun-17 14:30N 53°31' E 008°35'0 0.0
2017-Jun-17 13:30N 53°31' E 008°35'0 0.0
2017-Jun-17 12:59N 53°31' E 008°35'0 0.0
2017-Jun-17 12:30N 53°31' E 008°35'0 0.0
2017-Jun-17 12:00N 53°31' E 008°35'0 0.0
2017-Jun-17 11:30N 53°31' E 008°35'0 0.0
2017-Jun-17 11:00N 53°31' E 008°35'0 0.0
2017-Jun-17 10:30N 53°31' E 008°35'0 0.0
2017-Jun-17 10:00N 53°31' E 008°35'0 0.0
2017-Jun-17 09:30N 53°31' E 008°35'0 0.0
2017-Jun-17 09:00N 53°31' E 008°35'0 0.0
2017-Jun-17 08:31N 53°31' E 008°35'0 0.0
2017-Jun-17 08:00N 53°31' E 008°35'0 0.0
2017-Jun-17 07:30N 53°31' E 008°35'0 0.0
2017-Jun-17 07:00N 53°31' E 008°35'0 0.0
2017-Jun-17 06:30N 53°31' E 008°35'0 0.0
2017-Jun-17 06:00N 53°31' E 008°35'0 0.0
2017-Jun-17 05:28N 53°31' E 008°35'0 0.0
2017-Jun-17 04:59N 53°31' E 008°35'0 0.0
2017-Jun-17 04:29N 53°31' E 008°35'0 0.0
2017-Jun-17 04:00N 53°31' E 008°35'0 0.0
2017-Jun-17 03:29N 53°31' E 008°35'0 0.0
2017-Jun-17 03:00N 53°31' E 008°35'0 0.0
2017-Jun-17 02:28N 53°31' E 008°35'0 0.0
2017-Jun-17 01:58N 53°31' E 008°35'0 0.0
2017-Jun-17 01:28N 53°31' E 008°35'0 0.0
2017-Jun-17 00:57N 53°31' E 008°35'0 0.0
2017-Jun-17 00:30N 53°31' E 008°35'0 0.0
2017-Jun-17 00:00N 53°31' E 008°35'0 0.0
2017-Jun-16 23:29N 53°31' E 008°35'0 0.0
2017-Jun-16 22:58N 53°31' E 008°35'0 0.0
2017-Jun-16 22:30N 53°31' E 008°35'0 0.0
2017-Jun-16 22:00N 53°31' E 008°35'0 0.0
2017-Jun-16 21:30N 53°31' E 008°35'0 0.0
2017-Jun-16 21:00N 53°31' E 008°35'0 0.0
2017-Jun-16 20:30N 53°31' E 008°35'0 0.0
2017-Jun-16 20:00N 53°31' E 008°35'0 0.0
2017-Jun-16 19:30N 53°31' E 008°35'0 0.0
2017-Jun-16 19:00N 53°31' E 008°35'0 0.0
2017-Jun-16 18:30N 53°31' E 008°35'0 0.0
2017-Jun-16 18:00N 53°31' E 008°35'0 0.0
2017-Jun-16 17:28N 53°31' E 008°35'0 0.0
2017-Jun-16 17:00N 53°31' E 008°35'0 0.0
2017-Jun-16 16:30N 53°31' E 008°35'0 0.0
2017-Jun-16 15:59N 53°31' E 008°35'0 0.0
2017-Jun-16 15:30N 53°31' E 008°35'0 0.0
2017-Jun-16 14:59N 53°31' E 008°35'0 0.0
2017-Jun-16 14:30N 53°31' E 008°35'0 0.0
2017-Jun-16 13:29N 53°31' E 008°35'0 0.0
2017-Jun-16 13:00N 53°31' E 008°35'0 0.0
2017-Jun-16 12:30N 53°31' E 008°35'0 0.0
2017-Jun-16 12:00N 53°31' E 008°35'0 0.0
2017-Jun-16 11:31N 53°31' E 008°35'0 0.0
2017-Jun-16 11:00N 53°31' E 008°35'0 0.0
2017-Jun-16 10:30N 53°31' E 008°35'0 0.0
2017-Jun-16 10:00N 53°31' E 008°35'0 0.0
2017-Jun-16 09:30N 53°31' E 008°35'0 0.0
2017-Jun-16 09:00N 53°31' E 008°35'0 0.0
2017-Jun-16 08:30N 53°31' E 008°35'0 0.0
2017-Jun-16 08:00N 53°31' E 008°35'0 0.0
2017-Jun-16 07:30N 53°31' E 008°35'0 0.0
2017-Jun-16 07:00N 53°31' E 008°35'0 0.0
2017-Jun-16 06:30N 53°31' E 008°35'0 0.0
2017-Jun-16 05:58N 53°31' E 008°35'0 0.0
2017-Jun-16 05:28N 53°31' E 008°35'0 0.0
2017-Jun-16 04:58N 53°31' E 008°35'0 0.0
2017-Jun-16 04:28N 53°31' E 008°35'0 0.0
2017-Jun-16 04:00N 53°31' E 008°35'0 0.0
2017-Jun-16 03:30N 53°31' E 008°35'0 0.0
2017-Jun-16 02:59N 53°31' E 008°35'0 0.0
2017-Jun-16 02:29N 53°31' E 008°35'0 0.0
2017-Jun-16 01:59N 53°31' E 008°35'0 0.0
2017-Jun-16 01:30N 53°31' E 008°35'0 0.0
2017-Jun-16 01:01N 53°31' E 008°35'0 0.0
2017-Jun-16 00:30N 53°31' E 008°35'0 0.0
2017-Jun-16 00:01N 53°31' E 008°35'0 0.0
2017-Jun-15 23:31N 53°31' E 008°35'0 0.0
2017-Jun-15 23:00N 53°31' E 008°35'0 0.0
2017-Jun-15 22:31N 53°31' E 008°35'0 0.0
2017-Jun-15 22:00N 53°31' E 008°35'0 0.0
2017-Jun-15 21:30N 53°31' E 008°35'0 0.0
2017-Jun-15 20:59N 53°31' E 008°35'0 0.0
2017-Jun-15 20:29N 53°31' E 008°35'0 0.0
2017-Jun-15 19:59N 53°31' E 008°35'0 0.0
2017-Jun-15 19:30N 53°31' E 008°35'0 0.0
2017-Jun-15 18:59N 53°31' E 008°35'0 0.0
2017-Jun-15 18:30N 53°31' E 008°35'0 0.0
2017-Jun-15 18:00N 53°31' E 008°35'0 0.0
2017-Jun-15 17:28N 53°31' E 008°35'0 0.0
2017-Jun-15 16:58N 53°31' E 008°35'0 0.0
2017-Jun-15 16:28N 53°31' E 008°35'0 0.0
2017-Jun-15 15:58N 53°31' E 008°35'0 0.0
2017-Jun-15 15:28N 53°31' E 008°35'0 0.0
2017-Jun-15 14:58N 53°31' E 008°35'0 0.0
2017-Jun-15 14:29N 53°31' E 008°35'0 0.0
2017-Jun-15 13:28N 53°31' E 008°35'0 0.0
2017-Jun-15 13:00N 53°31' E 008°35'0 0.0
2017-Jun-15 12:30N 53°31' E 008°35'0 0.0
2017-Jun-15 12:00N 53°31' E 008°35'0 0.0
2017-Jun-15 11:30N 53°31' E 008°35'1 1.0
2017-Jun-15 11:00N 53°32' E 008°35'3 5.1
2017-Jun-15 10:30N 53°34' E 008°32'510.6
2017-Jun-15 10:00N 53°38' E 008°26'5 9.8
2017-Jun-15 09:30N 53°41' E 008°21'5 9.9
2017-Jun-15 09:00N 53°44' E 008°14'510.4
2017-Jun-15 08:30N 53°48' E 008°08'510.0
2017-Jun-15 08:00N 53°53' E 008°05'5 9.5
2017-Jun-15 07:30N 53°57' E 008°00'713.1
2017-Jun-15 07:00N 53°59' E 008°11'611.8
2017-Jun-15 06:29N 54°04' E 008°17'713.4
2017-Jun-15 05:56N 54°06' E 008°29'5 1.3
2017-Jun-15 02:16N 54°06' E 008°37'0 0.0
2017-Jun-15 01:58N 54°06' E 008°37'0 0.0
2017-Jun-15 01:28N 54°06' E 008°37'0 0.0
2017-Jun-15 00:58N 54°06' E 008°37'0 0.0
2017-Jun-15 00:28N 54°06' E 008°37'0 0.0
2017-Jun-14 23:47N 54°06' E 008°37'0 0.0
2017-Jun-14 22:35N 54°06' E 008°37'0 0.0
2017-Jun-13 12:11N 54°06' E 008°37'  
Track history (hours):
 
Tides and Currents Weather Stations Pressure Air Temp Water Temp Dewpoint Dewpoint Depression Visibility Wind Speed Wind Dir Waves Ship Positions

Oceanographic research ship Komet (Germany)

Detailed information on ship capabilities available from University of Delaware's Ocean Information Center.

Last reported at 2017-Jun-22 10:45 UTC. Time now 2017-Jun-28 07:01 UTC.
Position N 55°00' E 008°26'.

Length 63 m; draft 3.6 m.

Type: Law enforcement. MMSI: 211282860.

Date/timePositionNaut miles runAvg speedWind from/ knotsBaromVisibWave heightAir tempDewpointWater temp
2017-Jun-22 10:45N 55°00' E 008°26'0 0.1
2017-Jun-22 10:30N 55°00' E 008°26'2 0.7
2017-Jun-22 07:17N 55°02' E 008°28'2 1.7
2017-Jun-22 05:53N 55°00' E 008°26'0 0.0
2017-Jun-22 04:59N 55°00' E 008°26'0 0.0
2017-Jun-22 04:29N 55°00' E 008°26'0 0.0
2017-Jun-22 03:47N 55°00' E 008°26'0 0.0
2017-Jun-22 03:29N 55°00' E 008°26'0 0.0
2017-Jun-22 02:59N 55°00' E 008°26'0 0.0
2017-Jun-21 22:59N 55°00' E 008°26'0 0.0
2017-Jun-21 22:05N 55°00' E 008°26'67 2.1
2017-Jun-20 14:08N 53°54' E 008°01'610.2
2017-Jun-20 13:30N 53°49' E 008°08'612.3
2017-Jun-20 13:00N 53°45' E 008°14'713.2
2017-Jun-20 12:30N 53°40' E 008°23'713.6
2017-Jun-20 12:01N 53°36' E 008°31'5 9.0
2017-Jun-20 11:30N 53°32' E 008°35'1 1.1
2017-Jun-20 11:00N 53°31' E 008°35'0 0.0
2017-Jun-20 10:30N 53°31' E 008°35'0 0.0
2017-Jun-20 10:00N 53°31' E 008°35'0 0.0
2017-Jun-20 09:30N 53°31' E 008°35'0 0.0
2017-Jun-20 09:00N 53°31' E 008°35'0 0.0
2017-Jun-20 08:31N 53°31' E 008°35'0 0.0
2017-Jun-20 08:00N 53°31' E 008°35'0 0.0
2017-Jun-20 07:30N 53°31' E 008°35'0 0.0
2017-Jun-20 07:00N 53°31' E 008°35'0 0.0
2017-Jun-20 06:30N 53°31' E 008°35'0 0.0
2017-Jun-20 05:59N 53°31' E 008°35'0 0.0
2017-Jun-20 05:30N 53°31' E 008°35'0 0.0
2017-Jun-20 05:01N 53°31' E 008°35'0 0.0
2017-Jun-20 04:30N 53°31' E 008°35'0 0.0
2017-Jun-20 03:59N 53°31' E 008°35'0 0.0
2017-Jun-20 03:29N 53°31' E 008°35'0 0.0
2017-Jun-20 02:57N 53°31' E 008°35'0 0.0
2017-Jun-20 02:31N 53°31' E 008°35'0 0.0
2017-Jun-20 02:00N 53°31' E 008°35'0 0.0
2017-Jun-20 01:27N 53°31' E 008°35'0 0.0
2017-Jun-20 00:59N 53°31' E 008°35'0 0.0
2017-Jun-20 00:29N 53°31' E 008°35'0 0.0
2017-Jun-19 23:59N 53°31' E 008°35'0 0.0
2017-Jun-19 23:29N 53°31' E 008°35'0 0.0
2017-Jun-19 22:58N 53°31' E 008°35'0 0.0
2017-Jun-19 22:28N 53°31' E 008°35'0 0.0
2017-Jun-19 21:58N 53°31' E 008°35'0 0.0
2017-Jun-19 21:28N 53°31' E 008°35'0 0.0
2017-Jun-19 20:55N 53°31' E 008°35'0 0.0
2017-Jun-19 20:28N 53°31' E 008°35'0 0.0
2017-Jun-19 19:58N 53°31' E 008°35'0 0.0
2017-Jun-19 19:30N 53°31' E 008°35'0 0.0
2017-Jun-19 19:00N 53°31' E 008°35'0 0.0
2017-Jun-19 18:30N 53°31' E 008°35'0 0.0
2017-Jun-19 18:00N 53°31' E 008°35'0 0.0
2017-Jun-19 17:30N 53°31' E 008°35'0 0.0
2017-Jun-19 17:00N 53°31' E 008°35'0 0.0
2017-Jun-19 16:30N 53°31' E 008°35'0 0.0
2017-Jun-19 16:00N 53°31' E 008°35'0 0.0
2017-Jun-19 15:27N 53°31' E 008°35'0 0.0
2017-Jun-19 15:00N 53°31' E 008°35'0 0.0
2017-Jun-19 14:00N 53°31' E 008°35'0 0.0
2017-Jun-19 13:28N 53°31' E 008°35'0 0.0
2017-Jun-19 12:49N 53°31' E 008°35'0 0.0
2017-Jun-19 12:28N 53°31' E 008°35'0 0.0
2017-Jun-19 12:00N 53°31' E 008°35'0 0.0
2017-Jun-19 11:29N 53°31' E 008°35'0 0.0
2017-Jun-19 11:00N 53°31' E 008°35'0 0.0
2017-Jun-19 10:30N 53°31' E 008°35'0 0.0
2017-Jun-19 10:00N 53°31' E 008°35'0 0.0
2017-Jun-19 09:30N 53°31' E 008°35'0 0.0
2017-Jun-19 09:00N 53°31' E 008°35'0 0.0
2017-Jun-19 08:30N 53°31' E 008°35'0 0.0
2017-Jun-19 07:58N 53°31' E 008°35'0 0.0
2017-Jun-19 07:28N 53°31' E 008°35'0 0.0
2017-Jun-19 07:00N 53°31' E 008°35'0 0.0
2017-Jun-19 06:27N 53°31' E 008°35'0 0.0
2017-Jun-19 06:00N 53°31' E 008°35'0 0.0
2017-Jun-19 05:29N 53°31' E 008°35'0 0.0
2017-Jun-19 04:56N 53°31' E 008°35'0 0.0
2017-Jun-19 04:29N 53°31' E 008°35'0 0.0
2017-Jun-19 03:59N 53°31' E 008°35'0 0.0
2017-Jun-19 03:29N 53°31' E 008°35'0 0.0
2017-Jun-19 02:59N 53°31' E 008°35'0 0.0
2017-Jun-19 02:26N 53°31' E 008°35'0 0.0
2017-Jun-19 02:00N 53°31' E 008°35'0 0.0
2017-Jun-19 01:28N 53°31' E 008°35'0 0.0
2017-Jun-19 00:55N 53°31' E 008°35'0 0.0
2017-Jun-19 00:28N 53°31' E 008°35'0 0.0
2017-Jun-18 23:58N 53°31' E 008°35'0 0.0
2017-Jun-18 23:28N 53°31' E 008°35'0 0.0
2017-Jun-18 23:00N 53°31' E 008°35'0 0.0
2017-Jun-18 22:30N 53°31' E 008°35'0 0.0
2017-Jun-18 22:00N 53°31' E 008°35'0 0.0
2017-Jun-18 21:30N 53°31' E 008°35'0 0.0
2017-Jun-18 20:57N 53°31' E 008°35'0 0.0
2017-Jun-18 20:30N 53°31' E 008°35'0 0.0
2017-Jun-18 19:58N 53°31' E 008°35'0 0.0
2017-Jun-18 19:28N 53°31' E 008°35'0 0.0
2017-Jun-18 18:58N 53°31' E 008°35'0 0.0
2017-Jun-18 18:28N 53°31' E 008°35'0 0.0
2017-Jun-18 18:00N 53°31' E 008°35'0 0.0
2017-Jun-18 17:30N 53°31' E 008°35'0 0.0
2017-Jun-18 16:59N 53°31' E 008°35'0 0.0
2017-Jun-18 16:30N 53°31' E 008°35'0 0.0
2017-Jun-18 16:00N 53°31' E 008°35'0 0.0
2017-Jun-18 15:30N 53°31' E 008°35'0 0.0
2017-Jun-18 15:00N 53°31' E 008°35'0 0.0
2017-Jun-18 14:00N 53°31' E 008°35'0 0.0
2017-Jun-18 13:30N 53°31' E 008°35'0 0.0
2017-Jun-18 13:00N 53°31' E 008°35'0 0.0
2017-Jun-18 12:30N 53°31' E 008°35'0 0.0
2017-Jun-18 12:01N 53°31' E 008°35'0 0.0
2017-Jun-18 11:30N 53°31' E 008°35'0 0.0
2017-Jun-18 11:00N 53°31' E 008°35'0 0.0
2017-Jun-18 10:30N 53°31' E 008°35'0 0.0
2017-Jun-18 10:00N 53°31' E 008°35'0 0.0
2017-Jun-18 09:30N 53°31' E 008°35'0 0.0
2017-Jun-18 09:00N 53°31' E 008°35'0 0.0
2017-Jun-18 08:30N 53°31' E 008°35'0 0.0
2017-Jun-18 08:00N 53°31' E 008°35'0 0.0
2017-Jun-18 07:28N 53°31' E 008°35'0 0.0
2017-Jun-18 06:59N 53°31' E 008°35'0 0.0
2017-Jun-18 06:30N 53°31' E 008°35'0 0.0
2017-Jun-18 06:00N 53°31' E 008°35'0 0.0
2017-Jun-18 05:30N 53°31' E 008°35'0 0.0
2017-Jun-18 04:59N 53°31' E 008°35'0 0.0
2017-Jun-18 04:26N 53°31' E 008°35'0 0.0
2017-Jun-18 03:58N 53°31' E 008°35'0 0.0
2017-Jun-18 03:30N 53°31' E 008°35'0 0.0
2017-Jun-18 02:59N 53°31' E 008°35'0 0.0
2017-Jun-18 02:29N 53°31' E 008°35'0 0.0
2017-Jun-18 01:59N 53°31' E 008°35'0 0.0
2017-Jun-18 01:29N 53°31' E 008°35'0 0.0
2017-Jun-18 00:56N 53°31' E 008°35'0 0.0
2017-Jun-18 00:29N 53°31' E 008°35'0 0.0
2017-Jun-18 00:00N 53°31' E 008°35'0 0.0
2017-Jun-17 23:30N 53°31' E 008°35'0 0.0
2017-Jun-17 23:00N 53°31' E 008°35'0 0.0
2017-Jun-17 22:28N 53°31' E 008°35'0 0.0
2017-Jun-17 22:00N 53°31' E 008°35'0 0.0
2017-Jun-17 21:29N 53°31' E 008°35'0 0.0
2017-Jun-17 20:58N 53°31' E 008°35'0 0.0
2017-Jun-17 20:30N 53°31' E 008°35'0 0.0
2017-Jun-17 20:00N 53°31' E 008°35'0 0.0
2017-Jun-17 19:29N 53°31' E 008°35'0 0.0
2017-Jun-17 19:00N 53°31' E 008°35'0 0.0
2017-Jun-17 18:30N 53°31' E 008°35'0 0.0
2017-Jun-17 18:00N 53°31' E 008°35'0 0.0
2017-Jun-17 17:29N 53°31' E 008°35'0 0.0
2017-Jun-17 17:00N 53°31' E 008°35'0 0.0
2017-Jun-17 16:30N 53°31' E 008°35'0 0.0
2017-Jun-17 16:00N 53°31' E 008°35'0 0.0
2017-Jun-17 15:30N 53°31' E 008°35'0 0.0
2017-Jun-17 15:01N 53°31' E 008°35'0 0.0
2017-Jun-17 14:30N 53°31' E 008°35'0 0.0
2017-Jun-17 13:30N 53°31' E 008°35'0 0.0
2017-Jun-17 12:59N 53°31' E 008°35'0 0.0
2017-Jun-17 12:30N 53°31' E 008°35'0 0.0
2017-Jun-17 12:00N 53°31' E 008°35'0 0.0
2017-Jun-17 11:30N 53°31' E 008°35'0 0.0
2017-Jun-17 11:00N 53°31' E 008°35'0 0.0
2017-Jun-17 10:30N 53°31' E 008°35'0 0.0
2017-Jun-17 10:00N 53°31' E 008°35'0 0.0
2017-Jun-17 09:30N 53°31' E 008°35'0 0.0
2017-Jun-17 09:00N 53°31' E 008°35'0 0.0
2017-Jun-17 08:31N 53°31' E 008°35'0 0.0
2017-Jun-17 08:00N 53°31' E 008°35'0 0.0
2017-Jun-17 07:30N 53°31' E 008°35'0 0.0
2017-Jun-17 07:00N 53°31' E 008°35'0 0.0
2017-Jun-17 06:30N 53°31' E 008°35'0 0.0
2017-Jun-17 06:00N 53°31' E 008°35'0 0.0
2017-Jun-17 05:28N 53°31' E 008°35'0 0.0
2017-Jun-17 04:59N 53°31' E 008°35'0 0.0
2017-Jun-17 04:29N 53°31' E 008°35'0 0.0
2017-Jun-17 04:00N 53°31' E 008°35'0 0.0
2017-Jun-17 03:29N 53°31' E 008°35'0 0.0
2017-Jun-17 03:00N 53°31' E 008°35'0 0.0
2017-Jun-17 02:28N 53°31' E 008°35'0 0.0
2017-Jun-17 01:58N 53°31' E 008°35'0 0.0
2017-Jun-17 01:28N 53°31' E 008°35'0 0.0
2017-Jun-17 00:57N 53°31' E 008°35'0 0.0
2017-Jun-17 00:30N 53°31' E 008°35'0 0.0
2017-Jun-17 00:00N 53°31' E 008°35'0 0.0
2017-Jun-16 23:29N 53°31' E 008°35'0 0.0
2017-Jun-16 22:58N 53°31' E 008°35'0 0.0
2017-Jun-16 22:30N 53°31' E 008°35'0 0.0
2017-Jun-16 22:00N 53°31' E 008°35'0 0.0
2017-Jun-16 21:30N 53°31' E 008°35'0 0.0
2017-Jun-16 21:00N 53°31' E 008°35'0 0.0
2017-Jun-16 20:30N 53°31' E 008°35'0 0.0
2017-Jun-16 20:00N 53°31' E 008°35'0 0.0
2017-Jun-16 19:30N 53°31' E 008°35'0 0.0
2017-Jun-16 19:00N 53°31' E 008°35'0 0.0
2017-Jun-16 18:30N 53°31' E 008°35'0 0.0
2017-Jun-16 18:00N 53°31' E 008°35'0 0.0
2017-Jun-16 17:28N 53°31' E 008°35'0 0.0
2017-Jun-16 17:00N 53°31' E 008°35'0 0.0
2017-Jun-16 16:30N 53°31' E 008°35'0 0.0
2017-Jun-16 15:59N 53°31' E 008°35'0 0.0
2017-Jun-16 15:30N 53°31' E 008°35'0 0.0
2017-Jun-16 14:59N 53°31' E 008°35'0 0.0
2017-Jun-16 14:30N 53°31' E 008°35'0 0.0
2017-Jun-16 13:29N 53°31' E 008°35'0 0.0
2017-Jun-16 13:00N 53°31' E 008°35'0 0.0
2017-Jun-16 12:30N 53°31' E 008°35'0 0.0
2017-Jun-16 12:00N 53°31' E 008°35'0 0.0
2017-Jun-16 11:31N 53°31' E 008°35'0 0.0
2017-Jun-16 11:00N 53°31' E 008°35'0 0.0
2017-Jun-16 10:30N 53°31' E 008°35'0 0.0
2017-Jun-16 10:00N 53°31' E 008°35'0 0.0
2017-Jun-16 09:30N 53°31' E 008°35'0 0.0
2017-Jun-16 09:00N 53°31' E 008°35'0 0.0
2017-Jun-16 08:30N 53°31' E 008°35'0 0.0
2017-Jun-16 08:00N 53°31' E 008°35'0 0.0
2017-Jun-16 07:30N 53°31' E 008°35'0 0.0
2017-Jun-16 07:00N 53°31' E 008°35'0 0.0
2017-Jun-16 06:30N 53°31' E 008°35'0 0.0
2017-Jun-16 05:58N 53°31' E 008°35'0 0.0
2017-Jun-16 05:28N 53°31' E 008°35'0 0.0
2017-Jun-16 04:58N 53°31' E 008°35'0 0.0
2017-Jun-16 04:28N 53°31' E 008°35'0 0.0
2017-Jun-16 04:00N 53°31' E 008°35'0 0.0
2017-Jun-16 03:30N 53°31' E 008°35'0 0.0
2017-Jun-16 02:59N 53°31' E 008°35'0 0.0
2017-Jun-16 02:29N 53°31' E 008°35'0 0.0
2017-Jun-16 01:59N 53°31' E 008°35'0 0.0
2017-Jun-16 01:30N 53°31' E 008°35'0 0.0
2017-Jun-16 01:01N 53°31' E 008°35'0 0.0
2017-Jun-16 00:30N 53°31' E 008°35'0 0.0
2017-Jun-16 00:01N 53°31' E 008°35'0 0.0
2017-Jun-15 23:31N 53°31' E 008°35'0 0.0
2017-Jun-15 23:00N 53°31' E 008°35'0 0.0
2017-Jun-15 22:31N 53°31' E 008°35'0 0.0
2017-Jun-15 22:00N 53°31' E 008°35'0 0.0
2017-Jun-15 21:30N 53°31' E 008°35'0 0.0
2017-Jun-15 20:59N 53°31' E 008°35'0 0.0
2017-Jun-15 20:29N 53°31' E 008°35'0 0.0
2017-Jun-15 19:59N 53°31' E 008°35'0 0.0
2017-Jun-15 19:30N 53°31' E 008°35'0 0.0
2017-Jun-15 18:59N 53°31' E 008°35'0 0.0
2017-Jun-15 18:30N 53°31' E 008°35'0 0.0
2017-Jun-15 18:00N 53°31' E 008°35'0 0.0
2017-Jun-15 17:28N 53°31' E 008°35'0 0.0
2017-Jun-15 16:58N 53°31' E 008°35'0 0.0
2017-Jun-15 16:28N 53°31' E 008°35'0 0.0
2017-Jun-15 15:58N 53°31' E 008°35'0 0.0
2017-Jun-15 15:28N 53°31' E 008°35'0 0.0
2017-Jun-15 14:58N 53°31' E 008°35'0 0.0
2017-Jun-15 14:29N 53°31' E 008°35'0 0.0
2017-Jun-15 13:28N 53°31' E 008°35'0 0.0
2017-Jun-15 13:00N 53°31' E 008°35'0 0.0
2017-Jun-15 12:30N 53°31' E 008°35'0 0.0
2017-Jun-15 12:00N 53°31' E 008°35'0 0.0
2017-Jun-15 11:30N 53°31' E 008°35'1 1.0
2017-Jun-15 11:00N 53°32' E 008°35'3 5.1
2017-Jun-15 10:30N 53°34' E 008°32'510.6
2017-Jun-15 10:00N 53°38' E 008°26'5 9.8
2017-Jun-15 09:30N 53°41' E 008°21'5 9.9
2017-Jun-15 09:00N 53°44' E 008°14'510.4
2017-Jun-15 08:30N 53°48' E 008°08'510.0
2017-Jun-15 08:00N 53°53' E 008°05'5 9.5
2017-Jun-15 07:30N 53°57' E 008°00'713.1
2017-Jun-15 07:00N 53°59' E 008°11'611.8
2017-Jun-15 06:29N 54°04' E 008°17'713.4
2017-Jun-15 05:56N 54°06' E 008°29'5 1.3
2017-Jun-15 02:16N 54°06' E 008°37'0 0.0
2017-Jun-15 01:58N 54°06' E 008°37'0 0.0
2017-Jun-15 01:28N 54°06' E 008°37'0 0.0
2017-Jun-15 00:58N 54°06' E 008°37'0 0.0
2017-Jun-15 00:28N 54°06' E 008°37'0 0.0
2017-Jun-14 23:47N 54°06' E 008°37'0 0.0
2017-Jun-14 22:35N 54°06' E 008°37'0 0.0
2017-Jun-13 12:11N 54°06' E 008°37'  

Dump ship's entire track history